sensor_id;sensor_type;location;lat;lon;timestamp;P1;durP1;ratioP1;P2;durP2;ratioP2
38615;SDS011;24370;51.986;4.666;2023-03-16T00:02:05;5.80;;;4.63;;
38615;SDS011;24370;51.986;4.666;2023-03-16T00:04:31;7.50;;;4.73;;
38615;SDS011;24370;51.986;4.666;2023-03-16T00:07:01;7.67;;;4.67;;
38615;SDS011;24370;51.986;4.666;2023-03-16T00:09:33;7.78;;;4.95;;
38615;SDS011;24370;51.986;4.666;2023-03-16T00:12:00;8.53;;;4.83;;
38615;SDS011;24370;51.986;4.666;2023-03-16T00:14:29;9.37;;;4.90;;
38615;SDS011;24370;51.986;4.666;2023-03-16T00:16:56;6.27;;;4.90;;
38615;SDS011;24370;51.986;4.666;2023-03-16T00:19:21;7.20;;;4.90;;
38615;SDS011;24370;51.986;4.666;2023-03-16T00:21:48;7.13;;;5.20;;
38615;SDS011;24370;51.986;4.666;2023-03-16T00:24:15;8.53;;;4.50;;
38615;SDS011;24370;51.986;4.666;2023-03-16T00:26:42;10.27;;;5.27;;
38615;SDS011;24370;51.986;4.666;2023-03-16T00:29:07;11.47;;;5.47;;
38615;SDS011;24370;51.986;4.666;2023-03-16T00:31:33;10.07;;;5.30;;
38615;SDS011;24370;51.986;4.666;2023-03-16T00:33:58;11.90;;;5.83;;
38615;SDS011;24370;51.986;4.666;2023-03-16T00:36:24;7.00;;;5.10;;
38615;SDS011;24370;51.986;4.666;2023-03-16T00:38:49;10.70;;;5.97;;
38615;SDS011;24370;51.986;4.666;2023-03-16T00:41:15;9.50;;;5.10;;
38615;SDS011;24370;51.986;4.666;2023-03-16T00:43:41;10.10;;;6.00;;
38615;SDS011;24370;51.986;4.666;2023-03-16T00:46:12;12.63;;;6.17;;
38615;SDS011;24370;51.986;4.666;2023-03-16T00:48:41;8.57;;;5.67;;
38615;SDS011;24370;51.986;4.666;2023-03-16T00:51:14;11.03;;;6.00;;
38615;SDS011;24370;51.986;4.666;2023-03-16T00:53:42;7.63;;;5.43;;
38615;SDS011;24370;51.986;4.666;2023-03-16T00:56:08;10.83;;;6.07;;
38615;SDS011;24370;51.986;4.666;2023-03-16T00:58:36;8.67;;;6.00;;
38615;SDS011;24370;51.986;4.666;2023-03-16T01:01:04;12.67;;;5.70;;
38615;SDS011;24370;51.986;4.666;2023-03-16T01:03:32;10.40;;;5.80;;
38615;SDS011;24370;51.986;4.666;2023-03-16T01:06:02;13.70;;;6.40;;
38615;SDS011;24370;51.986;4.666;2023-03-16T01:08:29;16.07;;;6.60;;
38615;SDS011;24370;51.986;4.666;2023-03-16T01:11:00;8.23;;;5.37;;
38615;SDS011;24370;51.986;4.666;2023-03-16T01:13:27;9.80;;;5.93;;
38615;SDS011;24370;51.986;4.666;2023-03-16T01:15:53;10.90;;;5.87;;
38615;SDS011;24370;51.986;4.666;2023-03-16T01:18:18;12.53;;;5.57;;
38615;SDS011;24370;51.986;4.666;2023-03-16T01:20:44;14.20;;;6.70;;
38615;SDS011;24370;51.986;4.666;2023-03-16T01:23:15;9.67;;;5.70;;
38615;SDS011;24370;51.986;4.666;2023-03-16T01:25:44;15.03;;;6.20;;
38615;SDS011;24370;51.986;4.666;2023-03-16T01:28:20;11.23;;;5.67;;
38615;SDS011;24370;51.986;4.666;2023-03-16T01:30:50;10.97;;;6.03;;
38615;SDS011;24370;51.986;4.666;2023-03-16T01:33:21;11.27;;;5.77;;
38615;SDS011;24370;51.986;4.666;2023-03-16T01:35:54;11.97;;;6.00;;
38615;SDS011;24370;51.986;4.666;2023-03-16T01:38:21;12.23;;;5.87;;
38615;SDS011;24370;51.986;4.666;2023-03-16T01:40:48;10.50;;;6.00;;
38615;SDS011;24370;51.986;4.666;2023-03-16T01:43:15;10.57;;;6.07;;
38615;SDS011;24370;51.986;4.666;2023-03-16T01:45:57;8.13;;;5.40;;
38615;SDS011;24370;51.986;4.666;2023-03-16T01:48:43;10.00;;;5.73;;
38615;SDS011;24370;51.986;4.666;2023-03-16T01:51:20;12.83;;;5.97;;
38615;SDS011;24370;51.986;4.666;2023-03-16T01:53:51;15.77;;;5.63;;
38615;SDS011;24370;51.986;4.666;2023-03-16T01:58:48;11.57;;;6.50;;
38615;SDS011;24370;51.986;4.666;2023-03-16T02:01:16;8.63;;;6.07;;
38615;SDS011;24370;51.986;4.666;2023-03-16T02:03:42;9.07;;;6.13;;
38615;SDS011;24370;51.986;4.666;2023-03-16T02:06:13;9.57;;;6.20;;
38615;SDS011;24370;51.986;4.666;2023-03-16T02:08:43;9.83;;;5.97;;
38615;SDS011;24370;51.986;4.666;2023-03-16T02:11:11;14.23;;;6.30;;
38615;SDS011;24370;51.986;4.666;2023-03-16T02:13:42;10.27;;;6.20;;
38615;SDS011;24370;51.986;4.666;2023-03-16T02:16:08;9.60;;;6.33;;
38615;SDS011;24370;51.986;4.666;2023-03-16T02:18:34;10.50;;;6.40;;
38615;SDS011;24370;51.986;4.666;2023-03-16T02:23:28;12.70;;;6.40;;
38615;SDS011;24370;51.986;4.666;2023-03-16T02:32:04;13.40;;;6.70;;
38615;SDS011;24370;51.986;4.666;2023-03-16T02:34:30;11.47;;;6.17;;
38615;SDS011;24370;51.986;4.666;2023-03-16T02:36:55;12.50;;;6.30;;
38615;SDS011;24370;51.986;4.666;2023-03-16T02:39:22;13.30;;;6.77;;
38615;SDS011;24370;51.986;4.666;2023-03-16T02:41:48;9.80;;;5.87;;
38615;SDS011;24370;51.986;4.666;2023-03-16T02:44:18;9.30;;;6.13;;
38615;SDS011;24370;51.986;4.666;2023-03-16T02:46:48;11.27;;;6.03;;
38615;SDS011;24370;51.986;4.666;2023-03-16T02:49:35;12.73;;;6.50;;
38615;SDS011;24370;51.986;4.666;2023-03-16T02:52:04;9.23;;;6.17;;
38615;SDS011;24370;51.986;4.666;2023-03-16T02:54:30;13.70;;;6.07;;
38615;SDS011;24370;51.986;4.666;2023-03-16T02:56:56;11.87;;;6.60;;
38615;SDS011;24370;51.986;4.666;2023-03-16T02:59:21;7.70;;;5.90;;
38615;SDS011;24370;51.986;4.666;2023-03-16T03:01:46;13.17;;;5.77;;
38615;SDS011;24370;51.986;4.666;2023-03-16T03:04:12;9.30;;;5.67;;
38615;SDS011;24370;51.986;4.666;2023-03-16T03:06:37;13.07;;;6.30;;
38615;SDS011;24370;51.986;4.666;2023-03-16T03:09:03;11.53;;;6.13;;
38615;SDS011;24370;51.986;4.666;2023-03-16T03:11:29;11.70;;;5.33;;
38615;SDS011;24370;51.986;4.666;2023-03-16T03:13:55;13.07;;;6.00;;
38615;SDS011;24370;51.986;4.666;2023-03-16T03:16:21;12.13;;;6.57;;
38615;SDS011;24370;51.986;4.666;2023-03-16T03:18:47;9.63;;;5.60;;
38615;SDS011;24370;51.986;4.666;2023-03-16T03:21:12;9.73;;;5.60;;
38615;SDS011;24370;51.986;4.666;2023-03-16T03:23:38;8.03;;;5.20;;
38615;SDS011;24370;51.986;4.666;2023-03-16T03:26:03;13.20;;;6.00;;
38615;SDS011;24370;51.986;4.666;2023-03-16T03:28:30;14.50;;;6.33;;
38615;SDS011;24370;51.986;4.666;2023-03-16T03:30:58;12.87;;;5.60;;
38615;SDS011;24370;51.986;4.666;2023-03-16T03:33:25;12.70;;;5.40;;
38615;SDS011;24370;51.986;4.666;2023-03-16T03:35:54;8.27;;;5.37;;
38615;SDS011;24370;51.986;4.666;2023-03-16T03:38:21;8.40;;;5.63;;
38615;SDS011;24370;51.986;4.666;2023-03-16T03:40:50;9.47;;;5.73;;
38615;SDS011;24370;51.986;4.666;2023-03-16T03:43:16;12.87;;;5.80;;
38615;SDS011;24370;51.986;4.666;2023-03-16T03:45:42;10.20;;;5.07;;
38615;SDS011;24370;51.986;4.666;2023-03-16T03:48:07;11.10;;;5.33;;
38615;SDS011;24370;51.986;4.666;2023-03-16T03:50:32;11.27;;;5.43;;
38615;SDS011;24370;51.986;4.666;2023-03-16T03:52:58;8.73;;;6.13;;
38615;SDS011;24370;51.986;4.666;2023-03-16T03:55:23;9.60;;;5.10;;
38615;SDS011;24370;51.986;4.666;2023-03-16T03:57:48;9.77;;;5.60;;
38615;SDS011;24370;51.986;4.666;2023-03-16T04:00:15;11.83;;;5.27;;
38615;SDS011;24370;51.986;4.666;2023-03-16T04:02:44;14.13;;;5.33;;
38615;SDS011;24370;51.986;4.666;2023-03-16T04:05:09;10.43;;;4.97;;
38615;SDS011;24370;51.986;4.666;2023-03-16T04:07:35;12.40;;;5.60;;
38615;SDS011;24370;51.986;4.666;2023-03-16T04:10:00;7.77;;;5.03;;
38615;SDS011;24370;51.986;4.666;2023-03-16T04:12:26;7.70;;;4.87;;
38615;SDS011;24370;51.986;4.666;2023-03-16T04:14:51;7.23;;;4.40;;
38615;SDS011;24370;51.986;4.666;2023-03-16T04:17:16;11.43;;;5.00;;
38615;SDS011;24370;51.986;4.666;2023-03-16T04:19:42;11.27;;;5.10;;
38615;SDS011;24370;51.986;4.666;2023-03-16T04:22:07;10.87;;;4.63;;
38615;SDS011;24370;51.986;4.666;2023-03-16T04:24:33;9.83;;;4.97;;
38615;SDS011;24370;51.986;4.666;2023-03-16T04:26:59;12.37;;;5.57;;
38615;SDS011;24370;51.986;4.666;2023-03-16T04:29:25;6.70;;;4.70;;
38615;SDS011;24370;51.986;4.666;2023-03-16T04:31:50;9.83;;;4.30;;
38615;SDS011;24370;51.986;4.666;2023-03-16T04:34:17;9.30;;;4.13;;
38615;SDS011;24370;51.986;4.666;2023-03-16T04:36:43;6.73;;;4.20;;
38615;SDS011;24370;51.986;4.666;2023-03-16T04:39:09;15.37;;;4.87;;
38615;SDS011;24370;51.986;4.666;2023-03-16T04:41:34;7.03;;;4.37;;
38615;SDS011;24370;51.986;4.666;2023-03-16T04:44:00;12.90;;;4.50;;
38615;SDS011;24370;51.986;4.666;2023-03-16T04:46:25;6.50;;;4.47;;
38615;SDS011;24370;51.986;4.666;2023-03-16T04:48:51;9.80;;;4.73;;
38615;SDS011;24370;51.986;4.666;2023-03-16T04:51:16;9.63;;;4.47;;
38615;SDS011;24370;51.986;4.666;2023-03-16T04:53:42;10.00;;;4.77;;
38615;SDS011;24370;51.986;4.666;2023-03-16T04:56:08;10.40;;;4.37;;
38615;SDS011;24370;51.986;4.666;2023-03-16T04:58:42;8.80;;;4.60;;
38615;SDS011;24370;51.986;4.666;2023-03-16T05:01:07;8.40;;;4.50;;
38615;SDS011;24370;51.986;4.666;2023-03-16T05:03:33;8.90;;;4.40;;
38615;SDS011;24370;51.986;4.666;2023-03-16T05:05:59;13.27;;;4.73;;
38615;SDS011;24370;51.986;4.666;2023-03-16T05:08:24;10.07;;;4.30;;
38615;SDS011;24370;51.986;4.666;2023-03-16T05:10:50;8.50;;;4.60;;
38615;SDS011;24370;51.986;4.666;2023-03-16T05:13:15;10.87;;;5.43;;
38615;SDS011;24370;51.986;4.666;2023-03-16T05:15:41;7.60;;;4.30;;
38615;SDS011;24370;51.986;4.666;2023-03-16T05:18:06;7.57;;;4.17;;
38615;SDS011;24370;51.986;4.666;2023-03-16T05:20:31;8.37;;;4.87;;
38615;SDS011;24370;51.986;4.666;2023-03-16T05:22:57;9.57;;;4.87;;
38615;SDS011;24370;51.986;4.666;2023-03-16T05:25:22;13.33;;;5.33;;
38615;SDS011;24370;51.986;4.666;2023-03-16T05:27:49;8.40;;;4.70;;
38615;SDS011;24370;51.986;4.666;2023-03-16T05:30:16;9.70;;;4.60;;
38615;SDS011;24370;51.986;4.666;2023-03-16T05:32:42;13.00;;;4.37;;
38615;SDS011;24370;51.986;4.666;2023-03-16T05:35:09;12.80;;;4.80;;
38615;SDS011;24370;51.986;4.666;2023-03-16T05:37:37;11.60;;;5.33;;
38615;SDS011;24370;51.986;4.666;2023-03-16T05:40:04;8.63;;;4.90;;
38615;SDS011;24370;51.986;4.666;2023-03-16T05:42:44;9.60;;;4.50;;
38615;SDS011;24370;51.986;4.666;2023-03-16T05:45:12;6.40;;;4.20;;
38615;SDS011;24370;51.986;4.666;2023-03-16T05:47:39;6.73;;;4.13;;
38615;SDS011;24370;51.986;4.666;2023-03-16T05:50:06;10.57;;;4.23;;
38615;SDS011;24370;51.986;4.666;2023-03-16T05:52:33;5.77;;;4.00;;
38615;SDS011;24370;51.986;4.666;2023-03-16T05:54:59;11.37;;;4.07;;
38615;SDS011;24370;51.986;4.666;2023-03-16T05:57:24;7.33;;;3.50;;
38615;SDS011;24370;51.986;4.666;2023-03-16T05:59:50;7.63;;;3.47;;
38615;SDS011;24370;51.986;4.666;2023-03-16T06:02:16;6.97;;;4.00;;
38615;SDS011;24370;51.986;4.666;2023-03-16T06:04:42;5.63;;;3.20;;
38615;SDS011;24370;51.986;4.666;2023-03-16T06:07:07;9.33;;;4.20;;
38615;SDS011;24370;51.986;4.666;2023-03-16T06:09:33;7.40;;;4.57;;
38615;SDS011;24370;51.986;4.666;2023-03-16T06:11:58;6.73;;;4.17;;
38615;SDS011;24370;51.986;4.666;2023-03-16T06:14:23;9.33;;;3.93;;
38615;SDS011;24370;51.986;4.666;2023-03-16T06:16:49;8.37;;;4.17;;
38615;SDS011;24370;51.986;4.666;2023-03-16T06:19:15;5.67;;;3.87;;
38615;SDS011;24370;51.986;4.666;2023-03-16T06:21:40;6.27;;;4.00;;
38615;SDS011;24370;51.986;4.666;2023-03-16T06:24:06;7.07;;;3.87;;
38615;SDS011;24370;51.986;4.666;2023-03-16T06:26:33;8.43;;;3.87;;
38615;SDS011;24370;51.986;4.666;2023-03-16T06:28:59;6.57;;;3.97;;
38615;SDS011;24370;51.986;4.666;2023-03-16T06:31:24;17.90;;;5.07;;
38615;SDS011;24370;51.986;4.666;2023-03-16T06:33:50;10.03;;;4.07;;
38615;SDS011;24370;51.986;4.666;2023-03-16T06:36:15;7.80;;;4.17;;
38615;SDS011;24370;51.986;4.666;2023-03-16T06:38:41;9.67;;;4.27;;
38615;SDS011;24370;51.986;4.666;2023-03-16T06:41:07;7.83;;;3.93;;
38615;SDS011;24370;51.986;4.666;2023-03-16T06:43:32;12.30;;;4.20;;
38615;SDS011;24370;51.986;4.666;2023-03-16T06:45:57;8.93;;;4.00;;
38615;SDS011;24370;51.986;4.666;2023-03-16T06:48:23;12.93;;;4.53;;
38615;SDS011;24370;51.986;4.666;2023-03-16T06:50:48;10.70;;;4.07;;
38615;SDS011;24370;51.986;4.666;2023-03-16T06:53:14;7.93;;;4.00;;
38615;SDS011;24370;51.986;4.666;2023-03-16T06:55:39;14.27;;;4.93;;
38615;SDS011;24370;51.986;4.666;2023-03-16T06:58:05;9.13;;;4.53;;
38615;SDS011;24370;51.986;4.666;2023-03-16T07:00:31;6.10;;;4.20;;
38615;SDS011;24370;51.986;4.666;2023-03-16T07:02:59;9.47;;;4.33;;
38615;SDS011;24370;51.986;4.666;2023-03-16T07:05:25;11.83;;;5.63;;
38615;SDS011;24370;51.986;4.666;2023-03-16T07:07:51;12.73;;;3.90;;
38615;SDS011;24370;51.986;4.666;2023-03-16T07:10:16;7.50;;;4.00;;
38615;SDS011;24370;51.986;4.666;2023-03-16T07:12:43;11.77;;;3.83;;
38615;SDS011;24370;51.986;4.666;2023-03-16T07:15:09;9.63;;;4.27;;
38615;SDS011;24370;51.986;4.666;2023-03-16T07:17:35;12.87;;;4.30;;
38615;SDS011;24370;51.986;4.666;2023-03-16T07:20:01;7.40;;;4.03;;
38615;SDS011;24370;51.986;4.666;2023-03-16T07:22:29;8.90;;;4.03;;
38615;SDS011;24370;51.986;4.666;2023-03-16T07:24:55;9.77;;;3.47;;
38615;SDS011;24370;51.986;4.666;2023-03-16T07:27:21;7.63;;;4.33;;
38615;SDS011;24370;51.986;4.666;2023-03-16T07:29:50;7.60;;;3.87;;
38615;SDS011;24370;51.986;4.666;2023-03-16T07:32:18;9.07;;;3.60;;
38615;SDS011;24370;51.986;4.666;2023-03-16T07:34:44;9.77;;;4.17;;
38615;SDS011;24370;51.986;4.666;2023-03-16T07:37:10;9.60;;;3.87;;
38615;SDS011;24370;51.986;4.666;2023-03-16T07:39:35;11.37;;;3.83;;
38615;SDS011;24370;51.986;4.666;2023-03-16T07:42:01;6.77;;;3.23;;
38615;SDS011;24370;51.986;4.666;2023-03-16T07:44:28;8.70;;;3.40;;
38615;SDS011;24370;51.986;4.666;2023-03-16T07:46:53;7.97;;;3.77;;
38615;SDS011;24370;51.986;4.666;2023-03-16T07:49:18;13.53;;;3.70;;
38615;SDS011;24370;51.986;4.666;2023-03-16T07:51:44;7.83;;;3.77;;
38615;SDS011;24370;51.986;4.666;2023-03-16T07:54:10;10.10;;;3.23;;
38615;SDS011;24370;51.986;4.666;2023-03-16T07:56:35;7.70;;;3.37;;
38615;SDS011;24370;51.986;4.666;2023-03-16T07:59:01;8.67;;;3.30;;
38615;SDS011;24370;51.986;4.666;2023-03-16T08:01:26;7.80;;;3.07;;
38615;SDS011;24370;51.986;4.666;2023-03-16T08:03:52;7.77;;;3.20;;
38615;SDS011;24370;51.986;4.666;2023-03-16T08:06:18;4.90;;;2.77;;
38615;SDS011;24370;51.986;4.666;2023-03-16T08:08:44;7.47;;;3.07;;
38615;SDS011;24370;51.986;4.666;2023-03-16T08:11:10;8.30;;;3.27;;
38615;SDS011;24370;51.986;4.666;2023-03-16T08:13:35;6.00;;;3.07;;
38615;SDS011;24370;51.986;4.666;2023-03-16T08:16:01;9.07;;;3.10;;
38615;SDS011;24370;51.986;4.666;2023-03-16T08:18:27;6.63;;;2.80;;
38615;SDS011;24370;51.986;4.666;2023-03-16T08:20:54;6.50;;;2.90;;
38615;SDS011;24370;51.986;4.666;2023-03-16T08:23:20;4.07;;;2.73;;
38615;SDS011;24370;51.986;4.666;2023-03-16T08:25:50;6.33;;;3.33;;
38615;SDS011;24370;51.986;4.666;2023-03-16T08:28:16;7.17;;;2.93;;
38615;SDS011;24370;51.986;4.666;2023-03-16T08:30:46;3.80;;;2.70;;
38615;SDS011;24370;51.986;4.666;2023-03-16T08:33:13;8.10;;;3.57;;
38615;SDS011;24370;51.986;4.666;2023-03-16T08:35:41;9.10;;;3.30;;
38615;SDS011;24370;51.986;4.666;2023-03-16T08:38:08;8.67;;;2.97;;
38615;SDS011;24370;51.986;4.666;2023-03-16T08:40:34;7.00;;;3.00;;
38615;SDS011;24370;51.986;4.666;2023-03-16T08:43:00;9.93;;;2.93;;
38615;SDS011;24370;51.986;4.666;2023-03-16T08:45:26;5.40;;;3.30;;
38615;SDS011;24370;51.986;4.666;2023-03-16T08:47:52;5.90;;;2.70;;
38615;SDS011;24370;51.986;4.666;2023-03-16T08:50:18;4.80;;;2.63;;
38615;SDS011;24370;51.986;4.666;2023-03-16T08:52:44;7.40;;;2.80;;
38615;SDS011;24370;51.986;4.666;2023-03-16T08:55:10;5.60;;;2.97;;
38615;SDS011;24370;51.986;4.666;2023-03-16T08:57:37;7.33;;;3.00;;
38615;SDS011;24370;51.986;4.666;2023-03-16T09:00:06;10.87;;;2.73;;
38615;SDS011;24370;51.986;4.666;2023-03-16T09:02:41;3.50;;;2.20;;
38615;SDS011;24370;51.986;4.666;2023-03-16T09:05:08;5.60;;;2.50;;
38615;SDS011;24370;51.986;4.666;2023-03-16T09:07:35;4.00;;;2.37;;
38615;SDS011;24370;51.986;4.666;2023-03-16T09:10:02;5.07;;;2.43;;
38615;SDS011;24370;51.986;4.666;2023-03-16T09:12:29;7.83;;;2.60;;
38615;SDS011;24370;51.986;4.666;2023-03-16T09:14:55;4.97;;;2.50;;
38615;SDS011;24370;51.986;4.666;2023-03-16T09:17:21;5.17;;;2.57;;
38615;SDS011;24370;51.986;4.666;2023-03-16T09:19:46;8.77;;;3.33;;
38615;SDS011;24370;51.986;4.666;2023-03-16T09:22:12;7.70;;;2.80;;
38615;SDS011;24370;51.986;4.666;2023-03-16T09:24:37;4.90;;;2.57;;
38615;SDS011;24370;51.986;4.666;2023-03-16T09:27:03;4.33;;;2.40;;
38615;SDS011;24370;51.986;4.666;2023-03-16T09:29:29;4.90;;;2.80;;
38615;SDS011;24370;51.986;4.666;2023-03-16T09:31:54;5.07;;;2.20;;
38615;SDS011;24370;51.986;4.666;2023-03-16T09:34:20;7.83;;;2.30;;
38615;SDS011;24370;51.986;4.666;2023-03-16T09:36:46;7.43;;;2.23;;
38615;SDS011;24370;51.986;4.666;2023-03-16T09:39:12;5.23;;;2.17;;
38615;SDS011;24370;51.986;4.666;2023-03-16T09:41:54;6.10;;;2.13;;
38615;SDS011;24370;51.986;4.666;2023-03-16T09:45:05;3.23;;;1.87;;
38615;SDS011;24370;51.986;4.666;2023-03-16T09:47:38;4.03;;;2.00;;
38615;SDS011;24370;51.986;4.666;2023-03-16T09:50:06;8.23;;;2.20;;
38615;SDS011;24370;51.986;4.666;2023-03-16T09:55:29;5.72;;;2.35;;
38615;SDS011;24370;51.986;4.666;2023-03-16T09:57:57;9.50;;;1.88;;
38615;SDS011;24370;51.986;4.666;2023-03-16T10:00:35;4.93;;;1.80;;
38615;SDS011;24370;51.986;4.666;2023-03-16T10:03:44;4.93;;;2.30;;
38615;SDS011;24370;51.986;4.666;2023-03-16T10:06:15;3.37;;;2.23;;
38615;SDS011;24370;51.986;4.666;2023-03-16T10:08:44;4.63;;;2.00;;
38615;SDS011;24370;51.986;4.666;2023-03-16T10:11:25;4.40;;;1.73;;
38615;SDS011;24370;51.986;4.666;2023-03-16T10:16:49;4.68;;;1.75;;
38615;SDS011;24370;51.986;4.666;2023-03-16T10:19:20;5.20;;;2.27;;
38615;SDS011;24370;51.986;4.666;2023-03-16T10:21:55;4.87;;;1.80;;
38615;SDS011;24370;51.986;4.666;2023-03-16T10:26:55;5.53;;;1.50;;
38615;SDS011;24370;51.986;4.666;2023-03-16T10:29:25;5.33;;;1.90;;
38615;SDS011;24370;51.986;4.666;2023-03-16T10:31:58;4.57;;;1.90;;
38615;SDS011;24370;51.986;4.666;2023-03-16T10:34:32;3.27;;;1.67;;
38615;SDS011;24370;51.986;4.666;2023-03-16T10:36:59;3.20;;;1.80;;
38615;SDS011;24370;51.986;4.666;2023-03-16T10:39:34;5.32;;;1.60;;
38615;SDS011;24370;51.986;4.666;2023-03-16T10:44:27;7.10;;;1.87;;
38615;SDS011;24370;51.986;4.666;2023-03-16T10:47:00;5.33;;;1.90;;
38615;SDS011;24370;51.986;4.666;2023-03-16T10:49:35;7.67;;;1.70;;
38615;SDS011;24370;51.986;4.666;2023-03-16T10:54:54;2.83;;;1.53;;
38615;SDS011;24370;51.986;4.666;2023-03-16T10:57:41;7.97;;;2.00;;
38615;SDS011;24370;51.986;4.666;2023-03-16T11:00:15;5.77;;;1.80;;
38615;SDS011;24370;51.986;4.666;2023-03-16T11:02:46;6.00;;;1.60;;
38615;SDS011;24370;51.986;4.666;2023-03-16T11:08:42;3.93;;;1.70;;
38615;SDS011;24370;51.986;4.666;2023-03-16T11:10:44;4.93;;;2.45;;
38615;SDS011;24370;51.986;4.666;2023-03-16T11:13:16;9.25;;;2.13;;
38615;SDS011;24370;51.986;4.666;2023-03-16T11:15:48;6.20;;;2.25;;
38615;SDS011;24370;51.986;4.666;2023-03-16T11:18:21;5.60;;;2.27;;
38615;SDS011;24370;51.986;4.666;2023-03-16T11:20:49;7.37;;;2.07;;
38615;SDS011;24370;51.986;4.666;2023-03-16T11:23:15;5.53;;;1.73;;
38615;SDS011;24370;51.986;4.666;2023-03-16T11:25:43;5.43;;;1.73;;
38615;SDS011;24370;51.986;4.666;2023-03-16T11:28:15;7.15;;;2.22;;
38615;SDS011;24370;51.986;4.666;2023-03-16T11:31:17;7.50;;;1.63;;
38615;SDS011;24370;51.986;4.666;2023-03-16T11:34:15;5.43;;;1.50;;
38615;SDS011;24370;51.986;4.666;2023-03-16T11:37:09;10.40;;;1.77;;
38615;SDS011;24370;51.986;4.666;2023-03-16T11:39:44;4.50;;;1.70;;
38615;SDS011;24370;51.986;4.666;2023-03-16T11:47:52;4.55;;;1.40;;
38615;SDS011;24370;51.986;4.666;2023-03-16T11:53:29;3.65;;;1.30;;
38615;SDS011;24370;51.986;4.666;2023-03-16T11:56:29;4.78;;;1.33;;
38615;SDS011;24370;51.986;4.666;2023-03-16T11:58:59;5.28;;;1.55;;
38615;SDS011;24370;51.986;4.666;2023-03-16T12:04:43;2.90;;;1.30;;
38615;SDS011;24370;51.986;4.666;2023-03-16T12:10:28;3.50;;;1.38;;
38615;SDS011;24370;51.986;4.666;2023-03-16T12:13:26;6.50;;;1.23;;
38615;SDS011;24370;51.986;4.666;2023-03-16T12:18:46;2.90;;;1.10;;
38615;SDS011;24370;51.986;4.666;2023-03-16T12:21:21;6.60;;;1.45;;
38615;SDS011;24370;51.986;4.666;2023-03-16T12:24:02;7.22;;;1.58;;
38615;SDS011;24370;51.986;4.666;2023-03-16T12:26:32;5.82;;;1.33;;
38615;SDS011;24370;51.986;4.666;2023-03-16T12:29:26;6.68;;;1.40;;
38615;SDS011;24370;51.986;4.666;2023-03-16T12:32:09;7.15;;;1.50;;
38615;SDS011;24370;51.986;4.666;2023-03-16T12:40:03;4.57;;;1.40;;
38615;SDS011;24370;51.986;4.666;2023-03-16T12:42:47;3.25;;;1.13;;
38615;SDS011;24370;51.986;4.666;2023-03-16T12:46:11;4.80;;;1.42;;
38615;SDS011;24370;51.986;4.666;2023-03-16T12:50:57;4.78;;;1.30;;
38615;SDS011;24370;51.986;4.666;2023-03-16T12:53:38;3.55;;;1.20;;
38615;SDS011;24370;51.986;4.666;2023-03-16T12:56:08;6.82;;;1.30;;
38615;SDS011;24370;51.986;4.666;2023-03-16T12:58:38;5.85;;;1.13;;
38615;SDS011;24370;51.986;4.666;2023-03-16T13:01:08;4.70;;;1.30;;
38615;SDS011;24370;51.986;4.666;2023-03-16T13:03:36;1.67;;;0.90;;
38615;SDS011;24370;51.986;4.666;2023-03-16T13:06:02;4.20;;;1.15;;
38615;SDS011;24370;51.986;4.666;2023-03-16T13:08:39;3.35;;;1.13;;
38615;SDS011;24370;51.986;4.666;2023-03-16T13:11:07;2.65;;;1.20;;
38615;SDS011;24370;51.986;4.666;2023-03-16T13:13:35;3.28;;;1.20;;
38615;SDS011;24370;51.986;4.666;2023-03-16T13:16:21;3.70;;;1.23;;
38615;SDS011;24370;51.986;4.666;2023-03-16T13:18:49;2.92;;;0.90;;
38615;SDS011;24370;51.986;4.666;2023-03-16T13:21:20;6.28;;;1.75;;
38615;SDS011;24370;51.986;4.666;2023-03-16T13:23:59;5.28;;;1.30;;
38615;SDS011;24370;51.986;4.666;2023-03-16T13:26:44;2.50;;;1.20;;
38615;SDS011;24370;51.986;4.666;2023-03-16T13:29:22;1.77;;;0.80;;
38615;SDS011;24370;51.986;4.666;2023-03-16T13:31:50;9.00;;;1.70;;
38615;SDS011;24370;51.986;4.666;2023-03-16T13:34:20;3.70;;;0.90;;
38615;SDS011;24370;51.986;4.666;2023-03-16T13:36:48;4.15;;;1.23;;
38615;SDS011;24370;51.986;4.666;2023-03-16T13:39:23;8.60;;;1.33;;
38615;SDS011;24370;51.986;4.666;2023-03-16T13:44:21;4.63;;;0.90;;
38615;SDS011;24370;51.986;4.666;2023-03-16T13:46:49;3.03;;;1.10;;
38615;SDS011;24370;51.986;4.666;2023-03-16T13:49:18;1.98;;;0.80;;
38615;SDS011;24370;51.986;4.666;2023-03-16T13:51:44;3.40;;;0.98;;
38615;SDS011;24370;51.986;4.666;2023-03-16T13:54:44;2.20;;;0.80;;
38615;SDS011;24370;51.986;4.666;2023-03-16T13:57:03;4.75;;;1.00;;
38615;SDS011;24370;51.986;4.666;2023-03-16T13:59:31;3.47;;;1.02;;
38615;SDS011;24370;51.986;4.666;2023-03-16T14:01:58;4.75;;;1.40;;
38615;SDS011;24370;51.986;4.666;2023-03-16T14:04:26;6.72;;;1.33;;
38615;SDS011;24370;51.986;4.666;2023-03-16T14:07:00;4.32;;;1.20;;
38615;SDS011;24370;51.986;4.666;2023-03-16T14:09:29;2.42;;;0.98;;
38615;SDS011;24370;51.986;4.666;2023-03-16T14:11:57;4.45;;;1.15;;
38615;SDS011;24370;51.986;4.666;2023-03-16T14:14:27;2.10;;;1.05;;
38615;SDS011;24370;51.986;4.666;2023-03-16T14:16:58;3.22;;;0.80;;
38615;SDS011;24370;51.986;4.666;2023-03-16T14:19:26;2.38;;;0.90;;
38615;SDS011;24370;51.986;4.666;2023-03-16T14:22:00;2.15;;;0.70;;
38615;SDS011;24370;51.986;4.666;2023-03-16T14:24:34;3.53;;;1.23;;
38615;SDS011;24370;51.986;4.666;2023-03-16T14:32:38;1.65;;;0.82;;
38615;SDS011;24370;51.986;4.666;2023-03-16T14:35:19;2.83;;;1.00;;
38615;SDS011;24370;51.986;4.666;2023-03-16T14:37:46;4.50;;;0.90;;
38615;SDS011;24370;51.986;4.666;2023-03-16T14:40:21;2.08;;;0.90;;
38615;SDS011;24370;51.986;4.666;2023-03-16T14:42:46;2.40;;;0.90;;
38615;SDS011;24370;51.986;4.666;2023-03-16T14:45:13;5.95;;;1.05;;
38615;SDS011;24370;51.986;4.666;2023-03-16T14:47:42;3.08;;;0.77;;
38615;SDS011;24370;51.986;4.666;2023-03-16T14:50:14;1.58;;;0.82;;
38615;SDS011;24370;51.986;4.666;2023-03-16T14:52:42;1.33;;;0.70;;
38615;SDS011;24370;51.986;4.666;2023-03-16T14:55:12;2.17;;;0.98;;
38615;SDS011;24370;51.986;4.666;2023-03-16T14:57:40;2.75;;;0.80;;
38615;SDS011;24370;51.986;4.666;2023-03-16T15:00:10;3.67;;;0.98;;
38615;SDS011;24370;51.986;4.666;2023-03-16T15:02:39;4.57;;;0.93;;
38615;SDS011;24370;51.986;4.666;2023-03-16T15:05:07;7.55;;;1.15;;
38615;SDS011;24370;51.986;4.666;2023-03-16T15:07:37;1.85;;;0.75;;
38615;SDS011;24370;51.986;4.666;2023-03-16T15:10:21;4.90;;;1.02;;
38615;SDS011;24370;51.986;4.666;2023-03-16T15:12:50;2.42;;;1.05;;
38615;SDS011;24370;51.986;4.666;2023-03-16T15:15:22;4.30;;;0.90;;
38615;SDS011;24370;51.986;4.666;2023-03-16T15:17:48;6.22;;;0.82;;
38615;SDS011;24370;51.986;4.666;2023-03-16T15:20:19;1.75;;;0.80;;
38615;SDS011;24370;51.986;4.666;2023-03-16T15:22:57;3.65;;;1.15;;
38615;SDS011;24370;51.986;4.666;2023-03-16T15:25:24;4.03;;;0.80;;
38615;SDS011;24370;51.986;4.666;2023-03-16T15:28:02;1.05;;;0.65;;
38615;SDS011;24370;51.986;4.666;2023-03-16T15:30:35;3.63;;;1.10;;
38615;SDS011;24370;51.986;4.666;2023-03-16T15:33:01;3.53;;;0.98;;
38615;SDS011;24370;51.986;4.666;2023-03-16T15:35:26;3.80;;;0.80;;
38615;SDS011;24370;51.986;4.666;2023-03-16T15:37:52;2.25;;;0.80;;
38615;SDS011;24370;51.986;4.666;2023-03-16T15:40:25;3.00;;;0.70;;
38615;SDS011;24370;51.986;4.666;2023-03-16T15:42:52;3.80;;;0.98;;
38615;SDS011;24370;51.986;4.666;2023-03-16T15:45:20;2.80;;;1.13;;
38615;SDS011;24370;51.986;4.666;2023-03-16T15:47:47;4.28;;;1.02;;
38615;SDS011;24370;51.986;4.666;2023-03-16T15:50:14;2.88;;;0.88;;
38615;SDS011;24370;51.986;4.666;2023-03-16T15:52:42;3.67;;;0.80;;
38615;SDS011;24370;51.986;4.666;2023-03-16T15:55:20;2.53;;;0.90;;
38615;SDS011;24370;51.986;4.666;2023-03-16T15:58:09;2.20;;;1.17;;
38615;SDS011;24370;51.986;4.666;2023-03-16T16:00:44;1.20;;;0.90;;